Time;durP1;ratioP1;P1;durP2;ratioP2;P2;SDS_P1;SDS_P2;PMS_P1;PMS_P2;Temp;Humidity;BMP_temperature;BMP_pressure;BME280_temperature;BME280_humidity;BME280_pressure;Samples;Min_cycle;Max_cycle;Signal;HPM_P1;HPM_P2
2020/12/26 00:01:37;;;;;;;7.60;1.77;;;;;;;;;;4992382;28;20023;-54
2020/12/26 00:04:04;;;;;;;5.35;1.85;;;;;;;;;;4992360;28;20027;-56
2020/12/26 00:06:31;;;;;;;6.97;1.60;;;;;;;;;;4974888;28;20117;-57
2020/12/26 00:08:58;;;;;;;7.65;1.50;;;;;;;;;;4992475;28;20030;-56
2020/12/26 00:11:25;;;;;;;6.57;1.50;;;;;;;;;;4992249;28;20527;-54
2020/12/26 00:13:52;;;;;;;8.18;1.88;;;;;;;;;;4992232;28;20510;-56
2020/12/26 00:16:20;;;;;;;5.35;1.60;;;;;;;;;;4992220;28;20426;-54
2020/12/26 00:18:47;;;;;;;8.00;1.92;;;;;;;;;;4992246;28;20148;-56
2020/12/26 00:21:15;;;;;;;5.88;1.55;;;;;;;;;;4974795;28;20398;-55
2020/12/26 00:23:42;;;;;;;7.95;1.60;;;;;;;;;;4992181;28;20499;-57
2020/12/26 00:26:10;;;;;;;7.30;1.65;;;;;;;;;;4992223;28;20070;-56
2020/12/26 00:28:37;;;;;;;6.40;1.73;;;;;;;;;;4990916;28;20033;-57
2020/12/26 00:31:04;;;;;;;4.57;1.85;;;;;;;;;;4995068;28;20046;-54
2020/12/26 00:33:31;;;;;;;6.43;2.05;;;;;;;;;;4995707;28;20018;-57
2020/12/26 00:35:58;;;;;;;4.28;1.80;;;;;;;;;;4995625;28;20557;-57
2020/12/26 00:38:25;;;;;;;4.85;1.60;;;;;;;;;;4995719;28;20061;-53
2020/12/26 00:40:52;;;;;;;10.45;1.85;;;;;;;;;;4995335;28;20109;-56
2020/12/26 00:43:19;;;;;;;6.95;1.83;;;;;;;;;;4995381;28;20057;-55
2020/12/26 00:45:46;;;;;;;6.85;1.77;;;;;;;;;;4995744;28;20026;-53
2020/12/26 00:48:13;;;;;;;5.15;1.67;;;;;;;;;;4995189;28;20042;-55
2020/12/26 00:50:40;;;;;;;6.10;1.80;;;;;;;;;;4995235;28;20034;-57
2020/12/26 00:53:07;;;;;;;4.13;1.70;;;;;;;;;;4995409;28;20467;-57
2020/12/26 00:55:34;;;;;;;6.03;1.88;;;;;;;;;;4995174;28;20410;-56
2020/12/26 00:58:01;;;;;;;3.95;1.52;;;;;;;;;;4995251;28;20049;-58
2020/12/26 01:00:28;;;;;;;8.05;1.90;;;;;;;;;;4995541;28;20026;-57
2020/12/26 01:02:55;;;;;;;8.02;1.42;;;;;;;;;;4995171;28;20026;-57
2020/12/26 01:05:22;;;;;;;4.43;1.58;;;;;;;;;;4995034;28;20027;-57
2020/12/26 01:07:49;;;;;;;5.38;1.73;;;;;;;;;;4995247;28;20049;-57
2020/12/26 01:10:17;;;;;;;5.97;1.50;;;;;;;;;;4994915;28;20045;-56
2020/12/26 01:12:44;;;;;;;5.63;1.65;;;;;;;;;;4995041;28;20031;-56
2020/12/26 01:15:11;;;;;;;5.15;1.35;;;;;;;;;;4995069;28;20033;-57
2020/12/26 01:17:38;;;;;;;5.50;1.73;;;;;;;;;;4995002;28;20033;-57
2020/12/26 01:20:06;;;;;;;4.43;1.55;;;;;;;;;;4994927;28;20050;-55
2020/12/26 01:22:34;;;;;;;6.35;1.80;;;;;;;;;;4994699;28;20030;-54
2020/12/26 01:25:03;;;;;;;5.15;1.38;;;;;;;;;;4995410;28;20023;-56
2020/12/26 01:27:30;;;;;;;5.30;1.55;;;;;;;;;;4994146;28;20054;-55
2020/12/26 01:29:57;;;;;;;7.05;1.73;;;;;;;;;;4995303;28;20105;-55
2020/12/26 01:32:27;;;;;;;6.10;1.50;;;;;;;;;;4995416;28;20022;-57
2020/12/26 01:34:57;;;;;;;6.07;1.73;;;;;;;;;;4994500;28;20098;-54
2020/12/26 01:37:24;;;;;;;5.75;1.50;;;;;;;;;;4994542;28;20486;-56
2020/12/26 01:39:51;;;;;;;3.00;1.30;;;;;;;;;;4977029;28;20034;-55
2020/12/26 01:42:18;;;;;;;5.15;1.67;;;;;;;;;;4993549;28;20022;-57
2020/12/26 01:44:46;;;;;;;6.63;1.52;;;;;;;;;;4994414;28;20570;-57
2020/12/26 01:47:13;;;;;;;6.28;1.58;;;;;;;;;;4994442;28;20029;-57
2020/12/26 01:49:41;;;;;;;5.50;1.48;;;;;;;;;;4993972;28;20042;-57
2020/12/26 01:52:11;;;;;;;5.65;1.67;;;;;;;;;;4994201;28;20073;-55
2020/12/26 01:54:38;;;;;;;7.18;1.70;;;;;;;;;;4994192;28;20030;-53
2020/12/26 01:57:05;;;;;;;5.50;1.95;;;;;;;;;;4994099;28;20026;-52
2020/12/26 01:59:32;;;;;;;6.35;1.90;;;;;;;;;;4994129;28;20049;-47
2020/12/26 02:02:00;;;;;;;9.43;1.90;;;;;;;;;;4994011;28;20057;-53
2020/12/26 02:04:27;;;;;;;7.20;1.90;;;;;;;;;;4976600;28;20026;-48
2020/12/26 02:09:57;;;;;;;5.93;1.70;;;;;;;;;;4993896;28;20089;-55
2020/12/26 02:12:24;;;;;;;9.23;1.92;;;;;;;;;;4993840;28;20479;-54
2020/12/26 02:14:51;;;;;;;9.50;2.20;;;;;;;;;;4993582;28;20114;-51
2020/12/26 02:17:25;;;;;;;10.77;1.92;;;;;;;;;;4993821;28;20014;-56
2020/12/26 02:19:52;;;;;;;6.97;1.95;;;;;;;;;;4993629;28;20028;-49
2020/12/26 02:22:19;;;;;;;6.82;1.50;;;;;;;;;;4993675;28;20022;-50
2020/12/26 02:24:46;;;;;;;3.85;1.70;;;;;;;;;;4993613;28;20380;-55
2020/12/26 02:27:13;;;;;;;6.22;1.95;;;;;;;;;;4993523;28;20019;-55
2020/12/26 02:29:40;;;;;;;6.47;1.52;;;;;;;;;;4975929;28;20022;-52
2020/12/26 02:32:07;;;;;;;5.45;1.80;;;;;;;;;;4993478;28;20041;-55
2020/12/26 02:34:39;;;;;;;9.40;1.90;;;;;;;;;;4993382;28;20022;-56
2020/12/26 02:37:06;;;;;;;7.13;1.38;;;;;;;;;;4993543;28;20568;-52
2020/12/26 02:39:33;;;;;;;7.72;1.67;;;;;;;;;;4992998;28;20034;-57
2020/12/26 02:42:00;;;;;;;6.30;1.88;;;;;;;;;;4993466;28;20033;-57
2020/12/26 02:44:27;;;;;;;5.85;1.50;;;;;;;;;;4993035;28;20466;-57
2020/12/26 02:46:54;;;;;;;4.50;1.55;;;;;;;;;;4993065;28;20037;-53
2020/12/26 02:49:21;;;;;;;8.25;1.63;;;;;;;;;;4993108;28;20042;-58
2020/12/26 02:51:48;;;;;;;5.35;1.73;;;;;;;;;;4993047;28;20093;-53
2020/12/26 02:54:15;;;;;;;6.70;1.60;;;;;;;;;;4992168;28;20487;-56
2020/12/26 02:56:42;;;;;;;11.43;1.65;;;;;;;;;;4993148;28;20109;-55
2020/12/26 02:59:09;;;;;;;5.50;1.23;;;;;;;;;;4975468;28;20045;-57
2020/12/26 03:01:40;;;;;;;6.25;1.60;;;;;;;;;;4992915;28;20026;-57
2020/12/26 03:04:07;;;;;;;8.77;1.73;;;;;;;;;;4993206;28;20026;-55
2020/12/26 03:06:35;;;;;;;5.57;1.77;;;;;;;;;;4992984;28;20030;-55
2020/12/26 03:09:02;;;;;;;12.60;1.90;;;;;;;;;;4992855;28;20026;-51
2020/12/26 03:11:29;;;;;;;7.47;1.65;;;;;;;;;;4992985;28;20065;-56
2020/12/26 03:13:56;;;;;;;11.25;1.58;;;;;;;;;;4992808;28;20026;-52
2020/12/26 03:16:23;;;;;;;6.40;1.58;;;;;;;;;;4992774;28;20512;-52
2020/12/26 03:18:50;;;;;;;14.65;2.08;;;;;;;;;;4992906;28;20057;-51
2020/12/26 03:21:17;;;;;;;7.03;1.92;;;;;;;;;;4992778;28;20030;-55
2020/12/26 03:23:43;;;;;;;5.38;1.88;;;;;;;;;;4992815;28;20434;-56
2020/12/26 03:26:10;;;;;;;6.82;1.83;;;;;;;;;;4975342;28;20026;-53
2020/12/26 03:28:37;;;;;;;8.50;1.75;;;;;;;;;;4992658;28;20046;-56
2020/12/26 03:31:05;;;;;;;7.13;2.05;;;;;;;;;;4992526;28;20030;-53
2020/12/26 03:33:32;;;;;;;7.78;1.90;;;;;;;;;;4992832;28;20061;-55
2020/12/26 03:35:59;;;;;;;12.98;2.10;;;;;;;;;;4992656;28;20513;-55
2020/12/26 03:38:26;;;;;;;6.32;1.80;;;;;;;;;;4991268;28;20112;-55
2020/12/26 03:40:53;;;;;;;7.72;1.85;;;;;;;;;;4992735;28;20022;-53
2020/12/26 03:43:20;;;;;;;7.63;2.05;;;;;;;;;;4992558;28;20025;-55
2020/12/26 03:45:47;;;;;;;6.63;1.65;;;;;;;;;;4992424;28;20575;-55
2020/12/26 03:48:14;;;;;;;10.07;1.92;;;;;;;;;;4985109;28;20051;-51
2020/12/26 03:50:41;;;;;;;5.80;1.92;;;;;;;;;;4972954;28;20031;-57
2020/12/26 03:53:08;;;;;;;10.45;1.90;;;;;;;;;;4973320;28;20391;-56
2020/12/26 03:55:35;;;;;;;6.55;1.58;;;;;;;;;;4973166;28;20102;-56
2020/12/26 03:58:02;;;;;;;8.23;2.10;;;;;;;;;;4972992;28;20058;-56
2020/12/26 04:00:29;;;;;;;10.75;1.80;;;;;;;;;;4972720;28;20023;-57
2020/12/26 04:02:55;;;;;;;6.72;1.85;;;;;;;;;;4973150;28;20034;-57
2020/12/26 04:05:22;;;;;;;7.07;1.65;;;;;;;;;;4975175;28;20019;-55
2020/12/26 04:07:50;;;;;;;7.53;1.90;;;;;;;;;;4976593;28;20035;-56
2020/12/26 04:10:17;;;;;;;8.60;1.92;;;;;;;;;;4991579;28;20488;-56
2020/12/26 04:12:44;;;;;;;6.80;1.90;;;;;;;;;;4976824;28;20387;-57
2020/12/26 04:15:11;;;;;;;7.55;1.80;;;;;;;;;;4976479;28;20027;-56
2020/12/26 04:17:38;;;;;;;9.23;1.58;;;;;;;;;;4976494;28;20026;-56
2020/12/26 04:20:05;;;;;;;6.15;1.30;;;;;;;;;;4976625;28;20027;-57
2020/12/26 04:22:31;;;;;;;5.50;1.85;;;;;;;;;;4976597;28;20884;-58
2020/12/26 04:24:58;;;;;;;8.25;1.63;;;;;;;;;;4976462;28;20019;-57
2020/12/26 04:27:28;;;;;;;7.45;1.30;;;;;;;;;;4976555;28;20611;-57
2020/12/26 04:29:55;;;;;;;8.32;1.23;;;;;;;;;;4976202;28;20023;-57
2020/12/26 04:32:22;;;;;;;14.00;2.50;;;;;;;;;;4976233;28;20026;-57
2020/12/26 04:34:49;;;;;;;4.45;1.80;;;;;;;;;;4976408;28;20019;-57
2020/12/26 04:37:16;;;;;;;6.03;1.95;;;;;;;;;;4976215;28;20514;-57
2020/12/26 04:39:44;;;;;;;7.85;1.88;;;;;;;;;;4975990;28;20022;-57
2020/12/26 04:42:11;;;;;;;6.00;1.58;;;;;;;;;;4975169;28;20027;-58
2020/12/26 04:44:38;;;;;;;4.05;1.30;;;;;;;;;;4976102;28;20050;-57
2020/12/26 04:47:08;;;;;;;6.03;1.58;;;;;;;;;;4975955;28;20501;-57
2020/12/26 04:49:35;;;;;;;10.30;1.60;;;;;;;;;;4974699;28;20047;-57
2020/12/26 04:52:04;;;;;;;7.10;1.48;;;;;;;;;;4975786;28;20219;-58
2020/12/26 04:54:34;;;;;;;8.98;1.90;;;;;;;;;;4975936;28;20055;-54
2020/12/26 04:57:01;;;;;;;6.70;1.35;;;;;;;;;;4975839;28;20399;-58
2020/12/26 04:59:28;;;;;;;10.73;2.00;;;;;;;;;;4976008;28;20027;-57
2020/12/26 05:01:55;;;;;;;7.43;1.60;;;;;;;;;;4975808;28;20031;-57
2020/12/26 05:04:22;;;;;;;6.82;1.50;;;;;;;;;;4975831;28;20023;-54
2020/12/26 05:06:51;;;;;;;7.50;1.55;;;;;;;;;;4975874;28;20102;-57
2020/12/26 05:09:19;;;;;;;5.38;1.85;;;;;;;;;;4975596;28;20494;-57
2020/12/26 05:11:52;;;;;;;9.38;1.92;;;;;;;;;;4975397;28;20406;-57
2020/12/26 05:14:19;;;;;;;7.72;1.70;;;;;;;;;;4975744;28;20022;-58
2020/12/26 05:16:46;;;;;;;6.57;1.85;;;;;;;;;;4974493;28;20034;-55
2020/12/26 05:19:13;;;;;;;3.40;1.00;;;;;;;;;;4975308;28;20041;-58
2020/12/26 05:21:40;;;;;;;7.15;1.67;;;;;;;;;;4974356;28;20479;-57
2020/12/26 05:24:09;;;;;;;10.65;1.88;;;;;;;;;;4975379;28;20024;-57
2020/12/26 05:26:40;;;;;;;6.32;1.77;;;;;;;;;;4975063;28;20113;-57
2020/12/26 05:29:07;;;;;;;5.60;1.48;;;;;;;;;;4975432;28;20081;-57
2020/12/26 05:31:55;;;;;;;4.53;1.45;;;;;;;;;;4975357;28;20494;-57
2020/12/26 05:34:23;;;;;;;10.52;2.05;;;;;;;;;;4975344;28;20431;-55
2020/12/26 05:36:50;;;;;;;10.35;1.75;;;;;;;;;;4975063;28;20034;-54
2020/12/26 05:39:16;;;;;;;9.48;1.90;;;;;;;;;;4974974;28;20030;-57
2020/12/26 05:41:45;;;;;;;5.63;1.73;;;;;;;;;;4975158;28;20051;-57
2020/12/26 05:44:13;;;;;;;4.07;1.35;;;;;;;;;;4975344;28;20062;-57
2020/12/26 05:46:52;;;;;;;8.10;1.77;;;;;;;;;;4974989;28;20058;-57
2020/12/26 05:49:23;;;;;;;10.57;2.38;;;;;;;;;;4974713;28;20082;-57
2020/12/26 05:51:53;;;;;;;9.10;2.00;;;;;;;;;;4974855;28;20035;-51
2020/12/26 05:54:20;;;;;;;9.52;2.00;;;;;;;;;;4974731;28;20065;-56
2020/12/26 05:56:47;;;;;;;3.42;1.33;;;;;;;;;;4974758;28;20414;-52
2020/12/26 05:59:24;;;;;;;5.07;1.50;;;;;;;;;;4974897;28;20054;-58
2020/12/26 06:01:51;;;;;;;6.78;1.77;;;;;;;;;;4974926;28;20499;-58
2020/12/26 06:04:21;;;;;;;12.48;2.35;;;;;;;;;;4974443;28;20027;-57
2020/12/26 06:06:53;;;;;;;7.60;1.45;;;;;;;;;;4974484;28;20018;-57
2020/12/26 06:09:20;;;;;;;9.73;2.00;;;;;;;;;;4974566;28;20027;-57
2020/12/26 06:11:50;;;;;;;6.35;1.85;;;;;;;;;;4974478;28;20065;-54
2020/12/26 06:14:18;;;;;;;9.50;1.70;;;;;;;;;;4974393;28;20037;-57
2020/12/26 06:16:49;;;;;;;8.15;2.45;;;;;;;;;;4974480;28;20077;-57
2020/12/26 06:19:20;;;;;;;7.85;1.73;;;;;;;;;;4974503;28;20109;-58
2020/12/26 06:21:47;;;;;;;10.35;1.83;;;;;;;;;;4974373;28;20035;-57
2020/12/26 06:24:14;;;;;;;6.75;1.75;;;;;;;;;;4974461;28;20052;-55
2020/12/26 06:26:49;;;;;;;7.35;1.80;;;;;;;;;;4974235;28;20038;-57
2020/12/26 06:29:17;;;;;;;7.28;1.55;;;;;;;;;;4973819;28;20110;-55
2020/12/26 06:31:45;;;;;;;4.65;1.60;;;;;;;;;;4974075;28;20376;-50
2020/12/26 06:34:13;;;;;;;8.20;1.88;;;;;;;;;;4974262;28;20014;-57
2020/12/26 06:36:40;;;;;;;8.65;1.83;;;;;;;;;;4974199;28;20030;-55
2020/12/26 06:39:26;;;;;;;7.00;1.60;;;;;;;;;;4973817;28;20027;-56
2020/12/26 06:42:11;;;;;;;7.55;1.70;;;;;;;;;;4973944;28;20029;-56
2020/12/26 06:44:38;;;;;;;5.20;1.73;;;;;;;;;;4973937;28;20471;-56
2020/12/26 06:47:05;;;;;;;5.75;1.40;;;;;;;;;;4973834;28;20034;-56
2020/12/26 06:49:32;;;;;;;7.93;1.80;;;;;;;;;;4973789;28;20038;-57
2020/12/26 06:51:59;;;;;;;11.45;2.35;;;;;;;;;;4973785;28;20494;-55
2020/12/26 06:54:43;;;;;;;7.43;1.95;;;;;;;;;;4973736;28;20514;-56
2020/12/26 06:57:10;;;;;;;9.27;2.13;;;;;;;;;;4973551;28;20081;-57
2020/12/26 06:59:37;;;;;;;10.20;1.75;;;;;;;;;;4973691;28;20497;-56
2020/12/26 07:02:05;;;;;;;8.40;1.65;;;;;;;;;;4973643;28;20026;-56
2020/12/26 07:04:39;;;;;;;8.52;1.73;;;;;;;;;;4973639;28;20027;-54
2020/12/26 07:07:06;;;;;;;16.65;2.05;;;;;;;;;;4973728;28;20030;-57
2020/12/26 07:09:39;;;;;;;4.28;1.35;;;;;;;;;;4973419;28;20506;-54
2020/12/26 07:12:07;;;;;;;8.27;1.60;;;;;;;;;;4973496;28;20046;-56
2020/12/26 07:14:35;;;;;;;7.00;1.70;;;;;;;;;;4973408;28;20141;-53
2020/12/26 07:17:04;;;;;;;7.15;1.95;;;;;;;;;;4973617;28;20042;-57
2020/12/26 07:19:33;;;;;;;10.35;1.80;;;;;;;;;;4973150;28;20390;-57
2020/12/26 07:22:00;;;;;;;6.18;2.25;;;;;;;;;;4973345;28;20034;-56
2020/12/26 07:24:30;;;;;;;6.63;1.77;;;;;;;;;;4973457;28;20022;-57
2020/12/26 07:27:13;;;;;;;13.30;1.83;;;;;;;;;;4973304;28;20034;-54
2020/12/26 07:29:53;;;;;;;8.30;1.70;;;;;;;;;;4973220;28;20037;-56
2020/12/26 07:32:35;;;;;;;6.88;1.83;;;;;;;;;;4973253;28;20046;-57
2020/12/26 07:35:02;;;;;;;;;;;;;;;;;;4973694;28;20031;-58
2020/12/26 07:37:29;;;;;;;7.13;1.63;;;;;;;;;;4973320;28;19906;-56
2020/12/26 07:39:56;;;;;;;5.68;1.90;;;;;;;;;;4974599;28;20034;-58
2020/12/26 07:42:23;;;;;;;7.45;1.55;;;;;;;;;;4977357;28;20038;-58
2020/12/26 07:44:50;;;;;;;7.47;1.88;;;;;;;;;;4977226;28;20038;-57
2020/12/26 07:47:17;;;;;;;6.00;1.20;;;;;;;;;;4975885;28;20387;-57
2020/12/26 07:49:56;;;;;;;3.97;1.48;;;;;;;;;;4976860;28;20435;-57
2020/12/26 07:52:23;;;;;;;7.65;1.65;;;;;;;;;;4977037;28;20046;-57
2020/12/26 07:55:00;;;;;;;9.20;2.03;;;;;;;;;;4977146;28;20109;-54
2020/12/26 07:57:28;;;;;;;5.95;1.67;;;;;;;;;;4977071;28;20031;-57
2020/12/26 07:59:55;;;;;;;7.43;1.45;;;;;;;;;;4976790;28;20360;-57
2020/12/26 08:02:22;;;;;;;7.40;1.40;;;;;;;;;;4976914;28;20498;-57
2020/12/26 08:04:49;;;;;;;7.40;1.75;;;;;;;;;;4976982;28;20109;-57
2020/12/26 08:07:21;;;;;;;6.82;1.95;;;;;;;;;;4976831;28;20571;-57
2020/12/26 08:09:54;;;;;;;7.25;1.25;;;;;;;;;;4976537;28;20023;-54
2020/12/26 08:12:22;;;;;;;6.78;1.48;;;;;;;;;;4976635;28;20383;-56
2020/12/26 08:14:59;;;;;;;9.20;1.63;;;;;;;;;;4976795;28;20022;-58
2020/12/26 08:17:26;;;;;;;8.35;2.17;;;;;;;;;;4976485;28;20064;-55
2020/12/26 08:19:57;;;;;;;9.73;1.60;;;;;;;;;;4976451;28;20479;-57
2020/12/26 08:22:25;;;;;;;5.67;1.50;;;;;;;;;;4976619;28;20031;-57
2020/12/26 08:25:03;;;;;;;8.35;1.67;;;;;;;;;;4976579;28;20030;-57
2020/12/26 08:27:31;;;;;;;6.15;1.48;;;;;;;;;;4976487;28;20077;-57
2020/12/26 08:29:59;;;;;;;5.72;2.35;;;;;;;;;;4976155;28;20109;-57
2020/12/26 08:32:27;;;;;;;5.97;1.50;;;;;;;;;;4976586;28;20530;-57
2020/12/26 08:34:57;;;;;;;6.10;1.33;;;;;;;;;;4976434;28;20023;-56
2020/12/26 08:37:38;;;;;;;7.07;1.85;;;;;;;;;;4976230;28;20038;-56
2020/12/26 08:40:10;;;;;;;7.15;1.45;;;;;;;;;;4975975;28;20435;-56
2020/12/26 08:42:38;;;;;;;7.68;1.65;;;;;;;;;;4976360;28;20053;-56
2020/12/26 08:45:23;;;;;;;6.13;1.52;;;;;;;;;;4976320;28;20054;-56
2020/12/26 08:47:50;;;;;;;6.28;1.95;;;;;;;;;;4975984;28;20047;-57
2020/12/26 08:50:17;;;;;;;6.32;1.50;;;;;;;;;;4975828;28;20073;-55
2020/12/26 08:52:45;;;;;;;8.70;1.45;;;;;;;;;;4976057;28;20022;-57
2020/12/26 08:55:12;;;;;;;7.97;1.80;;;;;;;;;;4976123;28;20077;-57
2020/12/26 08:57:39;;;;;;;5.30;1.50;;;;;;;;;;4975869;28;20045;-57
2020/12/26 09:00:16;;;;;;;8.85;2.08;;;;;;;;;;4975808;28;20106;-57
2020/12/26 09:02:49;;;;;;;5.72;1.35;;;;;;;;;;4976237;28;20464;-56
2020/12/26 09:05:29;;;;;;;11.63;2.25;;;;;;;;;;4975934;28;20033;-56
2020/12/26 09:08:06;;;;;;;7.40;1.38;;;;;;;;;;4975836;28;20022;-54
2020/12/26 09:10:36;;;;;;;6.47;1.60;;;;;;;;;;4975598;28;20054;-57
2020/12/26 09:13:06;;;;;;;6.38;1.50;;;;;;;;;;4975647;28;20026;-56
2020/12/26 09:15:51;;;;;;;6.03;1.73;;;;;;;;;;4975514;28;20037;-56
2020/12/26 09:18:22;;;;;;;5.45;1.33;;;;;;;;;;4975457;28;20054;-57
2020/12/26 09:20:54;;;;;;;6.28;1.65;;;;;;;;;;4975543;28;20019;-57
2020/12/26 09:23:21;;;;;;;3.88;1.00;;;;;;;;;;4975498;28;20098;-58
2020/12/26 09:25:49;;;;;;;5.05;1.40;;;;;;;;;;4975374;28;20030;-57
2020/12/26 09:28:16;;;;;;;8.93;1.42;;;;;;;;;;4975460;28;20038;-57
2020/12/26 09:30:43;;;;;;;5.93;1.50;;;;;;;;;;4975183;28;20491;-56
2020/12/26 09:33:10;;;;;;;5.72;1.35;;;;;;;;;;4975248;28;20476;-57
2020/12/26 09:35:37;;;;;;;4.97;2.00;;;;;;;;;;4975381;28;20624;-57
2020/12/26 09:38:05;;;;;;;3.03;1.35;;;;;;;;;;4975119;28;20023;-56
2020/12/26 09:40:32;;;;;;;4.45;1.50;;;;;;;;;;4973613;28;20041;-56
2020/12/26 09:42:59;;;;;;;5.53;1.30;;;;;;;;;;4975278;28;20383;-57
2020/12/26 09:45:26;;;;;;;5.18;1.48;;;;;;;;;;4974960;28;20031;-57
2020/12/26 09:47:56;;;;;;;5.78;1.88;;;;;;;;;;4974638;28;20046;-56
2020/12/26 09:50:23;;;;;;;3.38;1.40;;;;;;;;;;4974849;28;20034;-53
2020/12/26 09:52:50;;;;;;;4.88;1.20;;;;;;;;;;4975032;28;20479;-57
2020/12/26 09:55:18;;;;;;;4.80;1.70;;;;;;;;;;4974736;28;20026;-57
2020/12/26 09:57:45;;;;;;;4.47;1.42;;;;;;;;;;4974725;28;20574;-57
2020/12/26 10:00:12;;;;;;;6.70;1.77;;;;;;;;;;4974907;28;20031;-55
2020/12/26 10:02:39;;;;;;;6.18;1.33;;;;;;;;;;4974160;28;20034;-56
2020/12/26 10:05:07;;;;;;;5.00;1.52;;;;;;;;;;4973321;28;20391;-57
2020/12/26 10:07:34;;;;;;;7.63;1.85;;;;;;;;;;4974743;28;20049;-54
2020/12/26 10:10:01;;;;;;;3.80;1.20;;;;;;;;;;4974362;28;20082;-57
2020/12/26 10:12:28;;;;;;;4.40;1.38;;;;;;;;;;4974527;28;20025;-58
2020/12/26 10:14:55;;;;;;;4.95;1.40;;;;;;;;;;4974490;28;20030;-57
2020/12/26 10:17:22;;;;;;;4.50;1.40;;;;;;;;;;4974385;28;20022;-57
2020/12/26 10:19:49;;;;;;;5.57;1.60;;;;;;;;;;4974354;28;20022;-57
2020/12/26 10:22:16;;;;;;;3.25;1.10;;;;;;;;;;4974394;28;20399;-57
2020/12/26 10:24:43;;;;;;;3.58;1.45;;;;;;;;;;4974216;28;20014;-57
2020/12/26 10:27:10;;;;;;;5.28;1.42;;;;;;;;;;4974215;28;20521;-57
2020/12/26 10:29:37;;;;;;;4.38;1.27;;;;;;;;;;4974335;28;20098;-53
2020/12/26 10:32:05;;;;;;;4.68;1.40;;;;;;;;;;4974184;28;20380;-52
2020/12/26 10:34:32;;;;;;;5.07;1.30;;;;;;;;;;4972785;28;20383;-56
2020/12/26 10:36:59;;;;;;;3.53;1.30;;;;;;;;;;4974270;28;20081;-54
2020/12/26 10:39:26;;;;;;;3.00;1.08;;;;;;;;;;4973750;28;20479;-57
2020/12/26 10:41:53;;;;;;;5.30;1.63;;;;;;;;;;4974082;28;20475;-56
2020/12/26 10:44:20;;;;;;;3.63;1.20;;;;;;;;;;4974112;28;20031;-51
2020/12/26 10:46:47;;;;;;;5.22;1.30;;;;;;;;;;4973861;28;20039;-54
2020/12/26 10:49:14;;;;;;;4.15;1.45;;;;;;;;;;4973679;28;20047;-50
2020/12/26 10:51:41;;;;;;;10.15;1.60;;;;;;;;;;4973854;28;20483;-54
2020/12/26 10:54:07;;;;;;;2.60;1.50;;;;;;;;;;4973728;28;20034;-54
2020/12/26 10:56:34;;;;;;;8.10;1.40;;;;;;;;;;4972386;28;20553;-55
2020/12/26 10:59:04;;;;;;;4.53;1.42;;;;;;;;;;4973774;28;20042;-57
2020/12/26 11:01:32;;;;;;;6.78;1.63;;;;;;;;;;4973756;28;20037;-57
2020/12/26 11:03:59;;;;;;;4.97;1.30;;;;;;;;;;4973613;28;20019;-57
2020/12/26 11:06:26;;;;;;;4.05;1.38;;;;;;;;;;4973791;28;20054;-57
2020/12/26 11:08:53;;;;;;;4.20;1.38;;;;;;;;;;4973430;28;20027;-58
2020/12/26 11:11:20;;;;;;;4.53;1.58;;;;;;;;;;4973430;28;20059;-58
2020/12/26 11:13:47;;;;;;;4.78;1.38;;;;;;;;;;4973110;28;20101;-56
2020/12/26 11:16:17;;;;;;;7.07;1.30;;;;;;;;;;4971962;28;20387;-56
2020/12/26 11:18:45;;;;;;;7.78;1.33;;;;;;;;;;4973434;28;20023;-56
2020/12/26 11:21:18;;;;;;;3.08;1.33;;;;;;;;;;4973256;28;20090;-57
2020/12/26 11:23:45;;;;;;;6.80;1.20;;;;;;;;;;4973568;28;20115;-57
2020/12/26 11:26:12;;;;;;;5.40;1.42;;;;;;;;;;4973524;28;20082;-57
2020/12/26 11:28:40;;;;;;;4.88;1.48;;;;;;;;;;4973501;28;20418;-56
2020/12/26 11:31:07;;;;;;;3.10;1.25;;;;;;;;;;4973362;28;20066;-55
2020/12/26 11:33:34;;;;;;;6.72;1.35;;;;;;;;;;4973178;28;20030;-58
2020/12/26 11:36:01;;;;;;;5.60;1.30;;;;;;;;;;4973258;28;20057;-57
2020/12/26 11:38:28;;;;;;;3.55;1.83;;;;;;;;;;4973292;28;20391;-56
2020/12/26 11:40:55;;;;;;;4.88;1.58;;;;;;;;;;4973229;28;20059;-55
2020/12/26 11:43:22;;;;;;;6.53;1.50;;;;;;;;;;4973153;28;20031;-57
2020/12/26 11:45:49;;;;;;;8.75;1.23;;;;;;;;;;4973370;28;20019;-57
2020/12/26 11:48:16;;;;;;;5.22;1.63;;;;;;;;;;4972966;28;20051;-53
2020/12/26 11:50:43;;;;;;;5.13;1.40;;;;;;;;;;4971588;28;20030;-57
2020/12/26 11:53:10;;;;;;;4.88;1.48;;;;;;;;;;4973351;28;20033;-57
2020/12/26 11:55:37;;;;;;;3.53;1.38;;;;;;;;;;4972954;28;20030;-57
2020/12/26 11:58:04;;;;;;;5.65;1.50;;;;;;;;;;4973019;28;20101;-57
2020/12/26 12:00:31;;;;;;;8.02;1.52;;;;;;;;;;4973172;28;20128;-57
2020/12/26 12:02:58;;;;;;;4.72;1.30;;;;;;;;;;4973169;28;20030;-58
2020/12/26 12:05:25;;;;;;;4.10;1.33;;;;;;;;;;4972957;28;20023;-57
2020/12/26 12:07:52;;;;;;;4.47;1.92;;;;;;;;;;4973011;28;20110;-47
2020/12/26 12:10:19;;;;;;;3.90;1.45;;;;;;;;;;4971570;28;20062;-58
2020/12/26 12:12:46;;;;;;;5.35;1.30;;;;;;;;;;4971508;28;20392;-55
2020/12/26 12:15:13;;;;;;;6.95;1.60;;;;;;;;;;4972747;28;20393;-53
2020/12/26 12:17:40;;;;;;;9.45;1.52;;;;;;;;;;4973017;28;20042;-56
2020/12/26 12:20:07;;;;;;;9.30;1.88;;;;;;;;;;4972834;28;20030;-54
2020/12/26 12:22:34;;;;;;;4.35;1.35;;;;;;;;;;4972870;28;20050;-56
2020/12/26 12:25:01;;;;;;;6.28;1.55;;;;;;;;;;4972994;28;20027;-58
2020/12/26 12:27:28;;;;;;;6.72;1.65;;;;;;;;;;4976308;28;20073;-56
2020/12/26 12:29:55;;;;;;;9.23;1.70;;;;;;;;;;4976411;28;20026;-54
2020/12/26 12:32:22;;;;;;;4.15;1.48;;;;;;;;;;4976690;28;20026;-55
2020/12/26 12:34:49;;;;;;;7.05;1.33;;;;;;;;;;4976244;28;20077;-54
2020/12/26 12:37:16;;;;;;;4.60;1.67;;;;;;;;;;4976212;28;20093;-56
2020/12/26 12:39:43;;;;;;;9.07;1.58;;;;;;;;;;4976171;28;20034;-57
2020/12/26 12:42:10;;;;;;;6.03;1.80;;;;;;;;;;4976204;28;20109;-57
2020/12/26 12:44:37;;;;;;;5.43;1.17;;;;;;;;;;4976119;28;20117;-57
2020/12/26 12:47:04;;;;;;;5.18;1.25;;;;;;;;;;4976149;28;20487;-57
2020/12/26 12:49:31;;;;;;;4.10;1.20;;;;;;;;;;4975664;28;20058;-56
2020/12/26 12:51:57;;;;;;;11.75;2.05;;;;;;;;;;4975915;28;20113;-57
2020/12/26 12:54:25;;;;;;;6.30;1.67;;;;;;;;;;4974665;28;20073;-57
2020/12/26 12:56:52;;;;;;;12.30;1.83;;;;;;;;;;4975761;28;20037;-57
2020/12/26 12:59:19;;;;;;;8.00;1.73;;;;;;;;;;4975637;28;20027;-55
2020/12/26 13:01:50;;;;;;;10.95;2.28;;;;;;;;;;4975922;28;20494;-56
2020/12/26 13:04:20;;;;;;;7.00;1.80;;;;;;;;;;4975602;28;20387;-57
2020/12/26 13:06:48;;;;;;;5.43;1.33;;;;;;;;;;4975634;28;20026;-55
2020/12/26 13:09:15;;;;;;;5.93;1.55;;;;;;;;;;4975626;28;20085;-57
2020/12/26 13:11:44;;;;;;;4.35;1.83;;;;;;;;;;4975643;28;20038;-57
2020/12/26 13:14:11;;;;;;;4.22;1.30;;;;;;;;;;4975609;28;20046;-58
2020/12/26 13:16:38;;;;;;;3.35;1.50;;;;;;;;;;4975499;28;20105;-48
2020/12/26 13:19:05;;;;;;;6.78;1.33;;;;;;;;;;4975446;28;20031;-57
2020/12/26 13:21:32;;;;;;;5.05;1.90;;;;;;;;;;4975374;28;20058;-57
2020/12/26 13:23:59;;;;;;;7.85;1.63;;;;;;;;;;4975390;28;20502;-56
2020/12/26 13:26:26;;;;;;;5.88;1.50;;;;;;;;;;4975436;28;20046;-57
2020/12/26 13:28:54;;;;;;;6.72;1.50;;;;;;;;;;4975229;28;20041;-57
2020/12/26 13:31:27;;;;;;;6.65;1.58;;;;;;;;;;4975233;28;20427;-58
2020/12/26 13:33:55;;;;;;;7.97;1.55;;;;;;;;;;4975321;28;20388;-56
2020/12/26 13:36:22;;;;;;;8.73;1.73;;;;;;;;;;4975085;28;20110;-57
2020/12/26 13:38:49;;;;;;;9.95;1.90;;;;;;;;;;4974062;28;20027;-55
2020/12/26 13:41:16;;;;;;;5.57;1.38;;;;;;;;;;4975217;28;20392;-57
2020/12/26 13:43:44;;;;;;;9.95;1.77;;;;;;;;;;4975059;28;20034;-56
2020/12/26 13:46:13;;;;;;;6.05;1.60;;;;;;;;;;4974734;28;20492;-57
2020/12/26 13:48:40;;;;;;;8.43;1.77;;;;;;;;;;4974825;28;20051;-57
2020/12/26 13:51:13;;;;;;;9.75;1.90;;;;;;;;;;4974733;28;20046;-54
2020/12/26 13:53:40;;;;;;;7.72;1.83;;;;;;;;;;4974893;28;20027;-56
2020/12/26 13:56:07;;;;;;;10.15;2.05;;;;;;;;;;4974607;28;20172;-57
2020/12/26 13:58:35;;;;;;;7.32;1.80;;;;;;;;;;4974867;28;20084;-57
2020/12/26 14:01:02;;;;;;;7.47;1.60;;;;;;;;;;4974536;28;20383;-56
2020/12/26 14:03:29;;;;;;;9.88;2.03;;;;;;;;;;4974602;28;20475;-55
2020/12/26 14:05:56;;;;;;;8.93;2.08;;;;;;;;;;4974764;28;20030;-52
2020/12/26 14:08:23;;;;;;;9.52;1.77;;;;;;;;;;4974485;28;20392;-56
2020/12/26 14:10:50;;;;;;;5.43;1.52;;;;;;;;;;4974441;28;20049;-58
2020/12/26 14:13:17;;;;;;;10.90;2.00;;;;;;;;;;4974693;28;20031;-54
2020/12/26 14:15:44;;;;;;;6.50;1.83;;;;;;;;;;4974348;28;20283;-52
2020/12/26 14:18:11;;;;;;;8.50;2.05;;;;;;;;;;4974273;28;20368;-56
2020/12/26 14:20:39;;;;;;;8.88;1.83;;;;;;;;;;4974585;28;20038;-55
2020/12/26 14:23:07;;;;;;;7.80;1.90;;;;;;;;;;4974441;28;20074;-55
2020/12/26 14:25:34;;;;;;;9.93;2.15;;;;;;;;;;4974133;28;20027;-57
2020/12/26 14:28:01;;;;;;;8.73;1.92;;;;;;;;;;4974226;28;20033;-53
2020/12/26 14:30:28;;;;;;;4.78;1.88;;;;;;;;;;4973949;28;20542;-56
2020/12/26 14:32:55;;;;;;;13.43;2.55;;;;;;;;;;4974042;28;20038;-57
2020/12/26 14:35:22;;;;;;;8.07;2.03;;;;;;;;;;4974216;28;20019;-56
2020/12/26 14:37:48;;;;;;;8.95;1.60;;;;;;;;;;4973893;28;20033;-52
2020/12/26 14:40:15;;;;;;;10.27;2.53;;;;;;;;;;4973774;28;20030;-54
2020/12/26 14:42:42;;;;;;;7.68;1.75;;;;;;;;;;4974169;28;20019;-55
2020/12/26 14:45:09;;;;;;;13.23;2.33;;;;;;;;;;4973759;28;20038;-58
2020/12/26 14:47:36;;;;;;;7.28;2.92;;;;;;;;;;4973631;28;20547;-55
2020/12/26 14:50:03;;;;;;;8.45;2.22;;;;;;;;;;4972594;28;20031;-57
2020/12/26 14:52:30;;;;;;;9.60;1.52;;;;;;;;;;4972352;28;20042;-57